Time;durP1;ratioP1;P1;durP2;ratioP2;P2;SDS_P1;SDS_P2;PMS_P1;PMS_P2;Temp;Humidity;BMP_temperature;BMP_pressure;BME280_temperature;BME280_humidity;BME280_pressure;Samples;Min_cycle;Max_cycle;Signal;HPM_P1;HPM_P2
2022/08/19 00:01:15;;;;;;;9.10;8.30;;;18.60;99.90;;;;;;6309720;22;20005;-78
2022/08/19 00:03:41;;;;;;;9.60;8.70;;;18.60;99.90;;;;;;6338223;22;20033;-77
2022/08/19 00:06:06;;;;;;;10.90;8.20;;;18.50;99.90;;;;;;6337829;22;20014;-79
2022/08/19 00:08:33;;;;;;;9.38;8.38;;;18.60;99.90;;;;;;6337914;22;20304;-78
2022/08/19 00:10:59;;;;;;;9.68;8.52;;;18.50;99.90;;;;;;6338438;22;20005;-78
2022/08/19 00:13:24;;;;;;;9.50;8.30;;;18.50;99.90;;;;;;6337171;22;20477;-77
2022/08/19 00:15:50;;;;;;;9.75;8.95;;;18.50;99.90;;;;;;6337893;22;20078;-76
2022/08/19 00:18:15;;;;;;;8.88;8.25;;;18.50;99.90;;;;;;6337846;22;20074;-76
2022/08/19 00:20:41;;;;;;;9.63;8.65;;;18.50;99.90;;;;;;6337940;22;20029;-78
2022/08/19 00:23:07;;;;;;;9.75;8.88;;;18.40;99.90;;;;;;6338243;22;20418;-77
2022/08/19 00:25:33;;;;;;;10.27;9.38;;;18.40;99.90;;;;;;6338151;22;20015;-78
2022/08/19 00:27:59;;;;;;;14.50;10.75;;;18.40;99.90;;;;;;6337747;22;20052;-77
2022/08/19 00:30:27;;;;;;;13.48;10.23;;;18.40;99.90;;;;;;6338876;22;19999;-77
2022/08/19 00:32:54;;;;;;;12.30;9.82;;;18.40;99.90;;;;;;6338874;22;20307;-78
2022/08/19 00:35:20;;;;;;;11.35;10.27;;;18.40;99.90;;;;;;6337700;22;20002;-78
2022/08/19 00:37:48;;;;;;;12.93;11.68;;;18.40;99.90;;;;;;6338715;22;20006;-77
2022/08/19 00:40:15;;;;;;;11.95;10.77;;;18.40;99.90;;;;;;6338628;22;19998;-77
2022/08/19 00:42:41;;;;;;;11.90;10.38;;;18.40;99.90;;;;;;6337828;22;20011;-77
2022/08/19 00:45:17;;;;;;;11.70;10.50;;;18.10;99.90;;;;;;6338687;22;20005;-77
2022/08/19 00:47:45;;;;;;;13.02;11.45;;;18.40;99.90;;;;;;6338636;22;20449;-77
2022/08/19 00:50:13;;;;;;;12.40;11.30;;;18.30;99.90;;;;;;6337872;22;20007;-77
2022/08/19 00:52:45;;;;;;;12.63;11.57;;;18.30;99.90;;;;;;6338713;22;20014;-77
2022/08/19 00:55:14;;;;;;;14.98;11.55;;;18.30;99.90;;;;;;6338164;22;19999;-77
2022/08/19 00:57:45;;;;;;;12.32;11.10;;;18.30;99.90;;;;;;6337521;22;20036;-78
2022/08/19 01:00:14;;;;;;;12.18;10.95;;;18.20;99.90;;;;;;6337812;22;20373;-77
2022/08/19 01:02:41;;;;;;;13.50;12.18;;;18.20;99.90;;;;;;6309597;22;20018;-77
2022/08/19 01:05:11;;;;;;;13.02;11.93;;;18.20;99.90;;;;;;6337684;22;20022;-78
2022/08/19 01:07:40;;;;;;;14.65;12.50;;;18.20;99.90;;;;;;6337207;22;20383;-78
2022/08/19 01:10:09;;;;;;;17.23;11.63;;;18.30;99.90;;;;;;6337343;22;20108;-78
2022/08/19 01:12:34;;;;;;;16.92;14.40;;;18.20;99.90;;;;;;6338487;22;20002;-77
2022/08/19 01:15:00;;;;;;;15.95;12.45;;;18.30;99.90;;;;;;6338089;22;20296;-78
2022/08/19 01:17:27;;;;;;;16.10;11.98;;;18.20;99.90;;;;;;6336111;22;20006;-77
2022/08/19 01:19:52;;;;;;;17.63;15.75;;;18.30;99.90;;;;;;6338452;22;20030;-77
2022/08/19 01:22:24;;;;;;;16.65;14.85;;;18.20;99.90;;;;;;6337644;22;20013;-78
2022/08/19 01:24:51;;;;;;;16.75;15.13;;;18.30;99.90;;;;;;6337218;22;20023;-77
2022/08/19 01:27:17;;;;;;;19.10;15.57;;;18.20;99.90;;;;;;6338398;22;19999;-77
2022/08/19 01:29:44;;;;;;;19.13;16.10;;;18.30;99.90;;;;;;6340554;22;20052;-77
2022/08/19 01:32:13;;;;;;;19.30;16.77;;;18.30;99.90;;;;;;6338702;22;19994;-78
2022/08/19 01:34:39;;;;;;;17.77;15.57;;;18.30;99.90;;;;;;6339775;22;20007;-78
2022/08/19 01:37:11;;;;;;;21.65;16.35;;;18.20;99.90;;;;;;6340272;22;20029;-76
2022/08/19 01:39:38;;;;;;;22.58;16.63;;;18.20;99.90;;;;;;6339329;22;20061;-76
2022/08/19 01:42:06;;;;;;;21.10;16.23;;;18.20;99.90;;;;;;6340053;22;19995;-77
2022/08/19 01:44:31;;;;;;;21.90;17.15;;;18.20;99.90;;;;;;6342554;22;20009;-78
2022/08/19 01:46:57;;;;;;;18.90;16.95;;;18.20;99.90;;;;;;6340240;22;20002;-77
2022/08/19 01:49:25;;;;;;;21.13;17.88;;;18.20;99.90;;;;;;6339711;22;20094;-77
2022/08/19 01:51:51;;;;;;;19.10;15.77;;;18.60;99.90;;;;;;6339035;22;20006;-78
2022/08/19 01:54:20;;;;;;;18.05;15.57;;;18.20;99.90;;;;;;6340231;22;20030;-78
2022/08/19 01:56:45;;;;;;;18.05;16.13;;;18.20;99.90;;;;;;6341308;22;20090;-78
2022/08/19 01:59:18;;;;;;;25.70;16.90;;;18.20;99.90;;;;;;6341576;22;19999;-78
2022/08/19 02:01:44;;;;;;;18.90;16.25;;;18.20;99.90;;;;;;6343303;22;19999;-78
2022/08/19 02:04:10;;;;;;;22.02;16.00;;;18.20;99.90;;;;;;6343999;22;20009;-78
2022/08/19 02:06:36;;;;;;;26.48;16.83;;;18.20;99.90;;;;;;6352853;22;20399;-77
2022/08/19 02:09:03;;;;;;;22.25;17.00;;;18.30;99.90;;;;;;6356727;22;20024;-77
2022/08/19 02:11:33;;;;;;;16.67;14.80;;;18.30;99.90;;;;;;6358057;22;20003;-77
2022/08/19 02:14:01;;;;;;;19.67;16.40;;;18.20;99.90;;;;;;6357671;22;20011;-77
2022/08/19 02:16:27;;;;;;;21.55;17.63;;;18.10;99.90;;;;;;6359502;22;19999;-77
2022/08/19 02:18:53;;;;;;;18.00;16.13;;;18.20;99.90;;;;;;6356234;22;20068;-77
2022/08/19 02:21:20;;;;;;;25.67;17.52;;;18.20;99.90;;;;;;6352350;22;19999;-77
2022/08/19 02:23:46;;;;;;;22.02;17.80;;;18.20;99.90;;;;;;6341674;22;20063;-77
2022/08/19 02:26:12;;;;;;;22.48;18.98;;;18.00;99.90;;;;;;6338945;22;20015;-77
2022/08/19 02:28:39;;;;;;;26.10;19.90;;;18.10;99.90;;;;;;6338528;22;20463;-77
2022/08/19 02:31:10;;;;;;;25.30;20.33;;;18.10;99.90;;;;;;6339627;22;20026;-77
2022/08/19 02:33:36;;;;;;;27.02;20.90;;;18.10;99.90;;;;;;6339725;22;20010;-77
2022/08/19 02:36:04;;;;;;;24.83;19.10;;;18.00;99.90;;;;;;6338280;22;20371;-78
2022/08/19 02:38:29;;;;;;;25.65;19.67;;;18.00;99.90;;;;;;6339087;22;19999;-77
2022/08/19 02:41:00;;;;;;;22.45;19.45;;;18.00;99.90;;;;;;6337849;22;20034;-78
2022/08/19 02:43:27;;;;;;;23.08;20.13;;;18.00;99.90;;;;;;6338882;22;20006;-78
2022/08/19 02:45:53;;;;;;;28.83;20.45;;;17.90;99.90;;;;;;6339119;22;20417;-77
2022/08/19 02:48:20;;;;;;;26.90;21.67;;;17.90;99.90;;;;;;6338111;22;20006;-76
2022/08/19 02:50:47;;;;;;;26.08;22.45;;;17.90;99.90;;;;;;6338815;22;19995;-76
2022/08/19 02:53:13;;;;;;;27.75;21.23;;;17.90;99.90;;;;;;6339650;22;20011;-77
2022/08/19 02:55:46;;;;;;;33.00;23.92;;;17.90;99.90;;;;;;6338277;22;20042;-77
2022/08/19 02:58:13;;;;;;;28.20;22.30;;;17.80;99.90;;;;;;6338898;22;20375;-77
2022/08/19 03:00:51;;;;;;;28.75;23.23;;;17.90;99.90;;;;;;6339267;22;20003;-77
2022/08/19 03:03:18;;;;;;;33.40;24.52;;;17.80;99.90;;;;;;6337750;22;20015;-78
2022/08/19 03:05:44;;;;;;;44.92;28.63;;;17.90;99.90;;;;;;6339274;22;20006;-77
2022/08/19 03:08:14;;;;;;;39.20;27.75;;;18.00;99.90;;;;;;6338418;22;20056;-78
2022/08/19 03:10:43;;;;;;;42.63;28.60;;;17.90;99.90;;;;;;6338367;22;19999;-77
2022/08/19 03:13:10;;;;;;;43.33;30.08;;;18.00;99.90;;;;;;6338753;22;20026;-77
2022/08/19 03:15:39;;;;;;;39.78;28.70;;;18.10;99.90;;;;;;6338808;22;20049;-77
2022/08/19 03:18:05;;;;;;;36.20;26.63;;;18.20;99.90;;;;;;6338062;22;20021;-77
2022/08/19 03:20:30;;;;;;;44.45;28.63;;;18.00;99.90;;;;;;6338752;22;20055;-77
2022/08/19 03:22:57;;;;;;;40.75;27.50;;;18.00;99.90;;;;;;6338602;22;20013;-77
2022/08/19 03:25:22;;;;;;;40.83;28.80;;;18.00;99.90;;;;;;6337788;22;20093;-78
2022/08/19 03:27:49;;;;;;;44.50;28.27;;;18.00;99.90;;;;;;6338868;22;20087;-77
2022/08/19 03:30:15;;;;;;;43.05;28.67;;;18.00;99.90;;;;;;6337346;22;20080;-78
2022/08/19 03:32:40;;;;;;;39.33;26.50;;;18.00;99.90;;;;;;6338448;22;20335;-78
2022/08/19 03:35:06;;;;;;;47.33;28.13;;;18.00;99.90;;;;;;6338963;22;20009;-77
2022/08/19 03:37:32;;;;;;;42.95;27.58;;;18.00;99.90;;;;;;6337450;22;20476;-77
2022/08/19 03:39:58;;;;;;;40.40;27.25;;;17.90;99.90;;;;;;6338729;22;20003;-78
2022/08/19 03:42:26;;;;;;;39.50;26.58;;;17.90;99.90;;;;;;6338199;22;20017;-78
2022/08/19 03:44:52;;;;;;;43.65;27.55;;;17.90;99.90;;;;;;6338074;22;20331;-78
2022/08/19 03:47:18;;;;;;;42.65;26.25;;;17.90;99.90;;;;;;6338303;22;20441;-78
2022/08/19 03:49:44;;;;;;;37.25;25.38;;;17.80;99.90;;;;;;6338734;22;20007;-77
2022/08/19 03:52:10;;;;;;;40.92;27.13;;;17.80;99.90;;;;;;6337009;22;20005;-77
2022/08/19 03:54:37;;;;;;;44.65;29.35;;;17.80;99.90;;;;;;6338757;22;19999;-77
2022/08/19 03:57:03;;;;;;;39.55;28.15;;;17.80;99.90;;;;;;6339013;22;20005;-77
2022/08/19 03:59:32;;;;;;;42.45;28.70;;;17.70;99.90;;;;;;6337775;22;20398;-77
2022/08/19 04:02:00;;;;;;;41.92;28.75;;;17.70;99.90;;;;;;6338708;22;20003;-77
2022/08/19 04:04:26;;;;;;;42.55;28.63;;;17.60;99.90;;;;;;6338332;22;20304;-77
2022/08/19 04:06:52;;;;;;;41.92;28.35;;;17.60;99.90;;;;;;6338100;22;20415;-77
2022/08/19 04:09:19;;;;;;;39.83;27.25;;;17.60;99.90;;;;;;6338211;22;20469;-77
2022/08/19 04:11:48;;;;;;;39.50;27.77;;;17.50;99.90;;;;;;6338485;22;20055;-77
2022/08/19 04:14:18;;;;;;;38.58;26.70;;;17.50;99.90;;;;;;6337185;22;20038;-77
2022/08/19 04:16:44;;;;;;;45.20;26.83;;;17.50;99.90;;;;;;6338479;22;19999;-77
2022/08/19 04:19:10;;;;;;;43.65;27.08;;;17.30;99.90;;;;;;6338277;22;20006;-77
2022/08/19 04:21:35;;;;;;;43.30;27.65;;;17.40;99.90;;;;;;6337993;22;20040;-77
2022/08/19 04:24:02;;;;;;;40.28;27.25;;;17.40;99.90;;;;;;6338888;22;20021;-77
2022/08/19 04:26:33;;;;;;;45.33;28.90;;;17.40;99.90;;;;;;6336826;22;20415;-77
2022/08/19 04:29:10;;;;;;;41.60;27.45;;;17.40;99.90;;;;;;6338484;22;20010;-77
2022/08/19 04:31:36;;;;;;;48.58;30.13;;;17.30;99.90;;;;;;6338488;22;20031;-77
2022/08/19 04:34:05;;;;;;;54.33;31.95;;;17.40;99.90;;;;;;6338027;22;20044;-77
2022/08/19 04:36:34;;;;;;;52.75;32.35;;;17.30;99.90;;;;;;6339076;22;20030;-76
2022/08/19 04:39:03;;;;;;;63.47;36.85;;;17.40;99.90;;;;;;6338284;22;20006;-76
2022/08/19 04:44:14;;;;;;;68.75;37.88;;;17.60;99.90;;;;;;6337509;22;20071;-76
2022/08/19 04:46:40;;;;;;;66.28;38.28;;;17.70;99.90;;;;;;6338010;22;20048;-78
2022/08/19 04:49:06;;;;;;;72.80;41.25;;;17.70;99.90;;;;;;6337363;22;20002;-76
2022/08/19 04:51:33;;;;;;;73.55;41.03;;;17.80;99.90;;;;;;6310105;22;19998;-77
2022/08/19 04:54:00;;;;;;;79.15;41.15;;;17.70;99.90;;;;;;6338042;22;20473;-75
2022/08/19 04:56:27;;;;;;;73.05;41.22;;;17.70;99.90;;;;;;6336898;22;20002;-77
2022/08/19 04:58:54;;;;;;;71.35;38.92;;;17.80;99.90;;;;;;6338344;22;19995;-77
2022/08/19 05:01:26;;;;;;;71.75;39.97;;;17.80;99.90;;;;;;6336853;22;20002;-76
2022/08/19 05:03:52;;;;;;;69.93;40.17;;;17.90;99.90;;;;;;6337520;22;20011;-77
2022/08/19 05:06:19;;;;;;;75.22;39.15;;;17.90;99.90;;;;;;6337993;22;19998;-77
2022/08/19 05:08:47;;;;;;;71.13;39.25;;;17.90;99.90;;;;;;6336792;22;20010;-76
2022/08/19 05:11:15;;;;;;;69.40;38.70;;;17.90;99.90;;;;;;6337829;22;19998;-77
2022/08/19 05:13:42;;;;;;;70.60;37.42;;;18.00;99.90;;;;;;6337751;22;20030;-77
2022/08/19 05:16:08;;;;;;;67.93;38.17;;;18.10;99.90;;;;;;6337315;22;20086;-77
2022/08/19 05:24:08;;;;;;;71.95;36.40;;;18.20;99.90;;;;;;6339750;22;20021;-77
2022/08/19 05:26:38;;;;;;;65.45;33.60;;;18.30;99.90;;;;;;6310706;22;20380;-76
2022/08/19 05:29:05;;;;;;;57.78;31.77;;;18.40;99.90;;;;;;6337799;22;20300;-77
2022/08/19 05:31:31;;;;;;;60.22;29.92;;;18.30;99.90;;;;;;6336371;22;20037;-75
2022/08/19 05:33:58;;;;;;;54.85;29.17;;;18.50;99.90;;;;;;6337636;22;20011;-77
2022/08/19 05:36:25;;;;;;;57.70;28.88;;;18.60;99.90;;;;;;6337348;22;20023;-77
2022/08/19 05:38:52;;;;;;;57.30;29.25;;;18.60;99.90;;;;;;6337263;22;20040;-78
2022/08/19 05:41:19;;;;;;;63.40;30.05;;;18.70;99.90;;;;;;6337572;22;19998;-78
2022/08/19 05:43:45;;;;;;;62.60;29.67;;;18.70;99.90;;;;;;6335627;22;20384;-78
2022/08/19 05:46:18;;;;;;;58.50;28.55;;;18.80;99.90;;;;;;6336799;22;20002;-77
2022/08/19 05:48:43;;;;;;;57.25;28.92;;;18.80;99.90;;;;;;6337701;22;19999;-78
2022/08/19 05:51:10;;;;;;;59.22;26.60;;;18.80;99.90;;;;;;6336879;22;20006;-77
2022/08/19 05:53:36;;;;;;;56.83;27.83;;;18.90;99.90;;;;;;6338027;22;20121;-77
2022/08/19 05:56:10;;;;;;;48.97;26.27;;;18.90;99.90;;;;;;6337442;22;20033;-76
2022/08/19 05:58:36;;;;;;;53.28;29.08;;;19.00;99.90;;;;;;6336839;22;20045;-76
2022/08/19 06:01:05;;;;;;;61.75;29.85;;;18.90;99.90;;;;;;6337873;22;20005;-76
2022/08/19 06:03:36;;;;;;;59.33;30.40;;;18.90;99.90;;;;;;6308962;22;20011;-76
2022/08/19 06:06:02;;;;;;;65.47;31.05;;;19.00;99.90;;;;;;6337176;22;20327;-75
2022/08/19 06:08:28;;;;;;;64.50;33.60;;;19.00;99.90;;;;;;6337342;22;20007;-76
2022/08/19 06:10:54;;;;;;;72.60;33.88;;;19.00;99.90;;;;;;6337696;22;20473;-76
2022/08/19 06:13:19;;;;;;;71.40;36.42;;;19.00;99.90;;;;;;6336951;22;20475;-77
2022/08/19 06:15:46;;;;;;;75.15;36.72;;;19.10;99.90;;;;;;6339476;22;19999;-76
2022/08/19 06:18:13;;;;;;;74.07;37.65;;;19.00;99.90;;;;;;6338910;22;20430;-77
2022/08/19 06:20:39;;;;;;;77.68;36.72;;;19.10;99.90;;;;;;6338121;22;20038;-77
2022/08/19 06:23:05;;;;;;;77.20;40.53;;;19.10;99.90;;;;;;6339139;22;20010;-77
2022/08/19 06:25:31;;;;;;;76.97;38.85;;;19.10;99.90;;;;;;6338305;22;20007;-76
2022/08/19 06:27:57;;;;;;;66.35;36.28;;;19.10;99.90;;;;;;6338500;22;20014;-76
2022/08/19 06:30:22;;;;;;;61.47;33.78;;;19.30;99.90;;;;;;6338995;22;20325;-77
2022/08/19 06:32:48;;;;;;;62.03;34.60;;;19.40;99.90;;;;;;6339139;22;20015;-77
2022/08/19 06:35:14;;;;;;;61.38;34.60;;;19.40;99.90;;;;;;6338100;22;20009;-76
2022/08/19 06:37:40;;;;;;;62.20;34.25;;;19.30;99.90;;;;;;6339187;22;20009;-77
2022/08/19 06:40:08;;;;;;;55.13;33.40;;;19.40;99.90;;;;;;6339779;22;19996;-77
2022/08/19 06:42:34;;;;;;;55.67;30.55;;;19.50;99.90;;;;;;6349505;22;20022;-77
2022/08/19 06:45:04;;;;;;;58.00;32.17;;;19.60;99.90;;;;;;6350335;22;19999;-77
2022/08/19 06:47:32;;;;;;;51.72;32.97;;;19.70;99.90;;;;;;6350290;22;20010;-77
2022/08/19 06:50:02;;;;;;;56.47;32.47;;;19.80;99.90;;;;;;6349213;22;20423;-77
2022/08/19 06:52:33;;;;;;;49.75;30.30;;;19.90;99.90;;;;;;6347533;22;20011;-76
2022/08/19 06:54:59;;;;;;;46.42;29.15;;;19.90;99.90;;;;;;6346021;22;20373;-77
2022/08/19 06:57:26;;;;;;;40.95;27.45;;;20.00;99.90;;;;;;6350045;22;20070;-77
2022/08/19 06:59:52;;;;;;;45.45;28.38;;;20.10;99.90;;;;;;6354425;22;20006;-77
2022/08/19 07:02:18;;;;;;;49.00;28.80;;;20.20;99.90;;;;;;6354107;22;20446;-76
2022/08/19 07:04:43;;;;;;;42.53;27.35;;;20.30;99.90;;;;;;6340794;22;20077;-77
2022/08/19 07:07:12;;;;;;;46.38;26.92;;;20.30;99.90;;;;;;6339532;22;20359;-77
2022/08/19 07:09:41;;;;;;;43.60;27.15;;;20.30;99.90;;;;;;6338444;22;20417;-77
2022/08/19 07:12:10;;;;;;;46.65;28.45;;;20.40;99.90;;;;;;6339449;22;19994;-77
2022/08/19 07:14:37;;;;;;;47.80;27.70;;;20.50;99.90;;;;;;6339520;22;20047;-77
2022/08/19 07:17:06;;;;;;;46.38;26.73;;;20.60;99.90;;;;;;6338347;22;20052;-75
2022/08/19 07:19:32;;;;;;;40.40;26.05;;;20.60;99.90;;;;;;6338534;22;20005;-76
2022/08/19 07:22:00;;;;;;;44.10;29.48;;;20.70;99.90;;;;;;6338757;22;19999;-76
2022/08/19 07:24:26;;;;;;;55.63;27.92;;;20.70;99.90;;;;;;6336401;22;20492;-76
2022/08/19 07:26:54;;;;;;;50.05;29.27;;;20.70;99.90;;;;;;6338718;22;20078;-77
2022/08/19 07:29:22;;;;;;;47.17;28.60;;;20.60;99.90;;;;;;6337793;22;20003;-76
2022/08/19 07:31:50;;;;;;;49.50;27.75;;;20.60;99.90;;;;;;6338740;22;20439;-79
2022/08/19 07:34:16;;;;;;;44.95;27.60;;;20.50;99.90;;;;;;6337976;22;20018;-76
2022/08/19 07:36:43;;;;;;;43.22;26.90;;;20.40;99.90;;;;;;6338021;22;20378;-77
2022/08/19 07:39:21;;;;;;;45.17;26.25;;;20.30;99.90;;;;;;6338834;22;20003;-76
2022/08/19 07:41:47;;;;;;;56.05;28.77;;;20.40;99.90;;;;;;6338621;22;20002;-77
2022/08/19 07:44:15;;;;;;;41.30;26.90;;;20.40;99.90;;;;;;6337125;22;20011;-77
2022/08/19 07:46:44;;;;;;;43.67;27.67;;;20.40;99.90;;;;;;6338225;22;19999;-76
2022/08/19 07:49:18;;;;;;;40.90;25.73;;;20.40;99.90;;;;;;6338644;22;20009;-77
2022/08/19 07:51:52;;;;;;;43.97;26.02;;;20.50;99.90;;;;;;6337473;22;20009;-77
2022/08/19 07:54:20;;;;;;;45.83;26.50;;;20.60;99.90;;;;;;6337980;22;20435;-76
2022/08/19 07:56:46;;;;;;;41.28;28.10;;;20.80;99.90;;;;;;6338475;22;20002;-76
2022/08/19 07:59:12;;;;;;;42.13;26.30;;;20.90;99.90;;;;;;6337404;22;20025;-77
2022/08/19 08:01:39;;;;;;;45.83;27.13;;;21.10;99.90;;;;;;6338753;22;20112;-76
2022/08/19 08:09:40;;;;;;;38.42;26.55;;;21.40;99.90;;;;;;6338797;22;20453;-77
2022/08/19 08:12:10;;;;;;;40.15;27.15;;;21.50;99.90;;;;;;6337449;22;20415;-77
2022/08/19 08:14:41;;;;;;;44.50;28.38;;;21.60;99.90;;;;;;6338281;22;20423;-76
2022/08/19 08:17:08;;;;;;;39.30;23.85;;;21.70;99.90;;;;;;6338168;22;20373;-76
2022/08/19 08:19:34;;;;;;;36.33;23.23;;;21.70;99.90;;;;;;6337417;22;20022;-77
2022/08/19 08:22:01;;;;;;;37.20;25.05;;;21.70;99.90;;;;;;6338199;22;20036;-77
2022/08/19 08:24:30;;;;;;;39.50;23.73;;;21.80;99.90;;;;;;6337663;22;20046;-77
2022/08/19 08:26:58;;;;;;;36.53;22.67;;;21.90;99.90;;;;;;6337638;22;20003;-77
2022/08/19 08:29:25;;;;;;;30.30;22.40;;;22.00;99.90;;;;;;6337976;22;20003;-77
2022/08/19 08:31:51;;;;;;;30.88;21.05;;;22.10;99.90;;;;;;6338468;22;20005;-76
2022/08/19 08:34:16;;;;;;;29.08;20.80;;;22.10;99.90;;;;;;6337194;22;20003;-77
2022/08/19 08:36:45;;;;;;;35.47;20.13;;;22.10;99.90;;;;;;6337618;22;20380;-76
2022/08/19 08:39:16;;;;;;;30.90;20.63;;;22.20;99.90;;;;;;6337844;22;20018;-77
2022/08/19 08:42:05;;;;;;;31.58;19.92;;;22.30;99.90;;;;;;6337540;22;19998;-76
2022/08/19 08:44:57;;;;;;;34.00;20.30;;;22.40;99.90;;;;;;6337511;22;20011;-78
2022/08/19 08:47:24;;;;;;;36.60;20.20;;;22.50;99.90;;;;;;6336656;22;20445;-76
2022/08/19 08:50:00;;;;;;;36.63;21.15;;;22.60;99.90;;;;;;6337815;22;20296;-77
2022/08/19 08:52:30;;;;;;;23.67;18.95;;;22.70;99.90;;;;;;6338038;22;20038;-76
2022/08/19 08:54:58;;;;;;;27.80;20.95;;;22.80;99.90;;;;;;6337063;22;20009;-76
2022/08/19 08:57:51;;;;;;;30.10;22.13;;;22.90;99.90;;;;;;6339841;22;19999;-77
2022/08/19 09:00:26;;;;;;;31.00;21.80;;;23.10;99.90;;;;;;6337518;22;20463;-77
2022/08/19 09:02:52;;;;;;;40.53;23.25;;;23.20;99.90;;;;;;6338013;22;20038;-77
2022/08/19 09:05:20;;;;;;;41.45;23.52;;;23.40;99.90;;;;;;6339160;22;19999;-78
2022/08/19 09:07:53;;;;;;;31.98;21.17;;;23.50;99.90;;;;;;6339126;22;20073;-77
2022/08/19 09:10:37;;;;;;;29.67;21.35;;;23.50;99.90;;;;;;6337521;22;20010;-77
2022/08/19 09:13:18;;;;;;;35.88;22.23;;;23.70;99.90;;;;;;6338127;22;19999;-78
2022/08/19 09:15:49;;;;;;;31.13;21.67;;;23.70;99.90;;;;;;6337223;22;20077;-75
2022/08/19 09:18:16;;;;;;;28.38;21.35;;;23.70;99.90;;;;;;6336636;22;20002;-76
2022/08/19 09:20:42;;;;;;;31.15;21.25;;;23.70;99.90;;;;;;6337844;22;20003;-78
2022/08/19 09:23:08;;;;;;;27.92;19.25;;;23.70;99.90;;;;;;6337151;22;20063;-77
2022/08/19 09:25:34;;;;;;;27.20;18.98;;;23.60;99.90;;;;;;6337613;22;20022;-77
2022/08/19 09:28:03;;;;;;;25.52;19.02;;;23.70;99.90;;;;;;6338063;22;20003;-77
2022/08/19 09:30:41;;;;;;;24.60;19.38;;;23.70;99.90;;;;;;6336967;22;20007;-77
2022/08/19 09:33:07;;;;;;;23.05;19.90;;;23.60;99.90;;;;;;6337718;22;20442;-77
2022/08/19 09:35:33;;;;;;;26.98;19.73;;;23.60;99.90;;;;;;6337964;22;20022;-77
2022/08/19 09:38:00;;;;;;;30.70;20.33;;;23.50;99.90;;;;;;6337478;22;20007;-77
2022/08/19 09:40:30;;;;;;;24.02;21.52;;;23.50;99.90;;;;;;6337952;22;20021;-77
2022/08/19 09:42:56;;;;;;;29.15;21.90;;;23.40;99.90;;;;;;6336906;22;20014;-78
2022/08/19 09:45:22;;;;;;;25.92;19.35;;;23.40;99.90;;;;;;6337638;22;20003;-76
2022/08/19 09:47:53;;;;;;;21.85;19.38;;;23.50;99.90;;;;;;6337534;22;20438;-76
2022/08/19 09:50:19;;;;;;;28.05;19.90;;;23.50;99.90;;;;;;6339084;22;20435;-76
2022/08/19 09:52:45;;;;;;;33.25;20.98;;;23.50;99.90;;;;;;6340119;22;20009;-77
2022/08/19 09:55:12;;;;;;;24.63;17.85;;;23.60;99.90;;;;;;6339327;22;20014;-76
2022/08/19 09:57:38;;;;;;;24.30;17.55;;;23.80;99.90;;;;;;6338415;22;20003;-76
2022/08/19 10:00:07;;;;;;;18.83;16.80;;;23.90;99.90;;;;;;6339632;22;20006;-76
2022/08/19 10:02:33;;;;;;;16.80;15.02;;;24.10;99.90;;;;;;6337531;22;20003;-76
2022/08/19 10:07:44;;;;;;;21.27;14.85;;;24.50;99.90;;;;;;6339464;22;20029;-76
2022/08/19 10:10:11;;;;;;;15.73;13.95;;;24.70;99.90;;;;;;6338974;22;20361;-76
2022/08/19 10:12:37;;;;;;;19.55;16.13;;;24.90;99.90;;;;;;6339261;22;20037;-77
2022/08/19 10:15:04;;;;;;;18.17;14.32;;;25.00;99.90;;;;;;6339740;22;20003;-77
2022/08/19 10:17:29;;;;;;;26.75;18.27;;;25.10;99.90;;;;;;6339201;22;20003;-77
2022/08/19 10:19:55;;;;;;;22.90;14.70;;;25.30;99.90;;;;;;6338474;22;20003;-76
2022/08/19 10:22:20;;;;;;;15.48;12.38;;;25.20;99.90;;;;;;6338891;22;20015;-77
2022/08/19 10:24:46;;;;;;;18.65;12.52;;;25.10;99.90;;;;;;6339128;22;20014;-76
2022/08/19 10:27:13;;;;;;;14.43;12.05;;;25.10;99.90;;;;;;6336839;22;20054;-76
2022/08/19 10:29:40;;;;;;;21.33;12.82;;;25.00;99.90;;;;;;6339730;22;20051;-77
2022/08/19 10:32:08;;;;;;;18.33;10.88;;;25.00;99.90;;;;;;6338550;22;19994;-76
2022/08/19 10:34:38;;;;;;;11.20;7.80;;;25.00;99.90;;;;;;6339372;22;20002;-76
2022/08/19 10:37:07;;;;;;;;;;;24.90;99.90;;;;;;6339794;22;20089;-77
2022/08/19 10:39:35;;;;;;;11.40;7.65;;;24.90;99.90;;;;;;6337529;22;19977;-76
2022/08/19 10:42:05;;;;;;;10.85;7.93;;;24.90;99.90;;;;;;6339322;22;20002;-76
2022/08/19 10:44:31;;;;;;;;;;;24.80;99.90;;;;;;6340593;22;20005;-76
2022/08/19 10:46:58;;;;;;;16.38;8.73;;;24.90;99.90;;;;;;6338339;22;19903;-75
2022/08/19 10:49:24;;;;;;;14.27;10.20;;;25.00;99.90;;;;;;6338682;22;20007;-77
2022/08/19 10:57:18;;;;;;;13.73;8.10;;;25.00;99.90;;;;;;6338549;22;20044;-77
2022/08/19 10:59:44;;;;;;;9.35;7.03;;;25.00;99.90;;;;;;6338285;22;19995;-76
2022/08/19 11:02:11;;;;;;;10.70;7.05;;;25.00;99.90;;;;;;6337581;22;20029;-77
2022/08/19 11:04:38;;;;;;;9.55;6.78;;;25.00;99.90;;;;;;6339342;22;20002;-76
2022/08/19 11:07:04;;;;;;;11.15;6.53;;;25.00;99.90;;;;;;6339170;22;20003;-76
2022/08/19 11:09:30;;;;;;;6.63;6.03;;;25.10;99.90;;;;;;6337694;22;20011;-77
2022/08/19 11:11:57;;;;;;;6.65;5.63;;;25.20;99.90;;;;;;6339221;22;20017;-76
2022/08/19 11:14:25;;;;;;;6.82;5.72;;;25.30;99.90;;;;;;6338120;22;20419;-76
2022/08/19 11:16:55;;;;;;;6.45;5.32;;;25.40;99.90;;;;;;6338903;22;20003;-76
2022/08/19 11:19:23;;;;;;;7.40;4.85;;;25.50;99.90;;;;;;6310665;22;20350;-76
2022/08/19 11:21:49;;;;;;;5.28;4.78;;;25.60;99.90;;;;;;6338187;22;20007;-76
2022/08/19 11:24:20;;;;;;;7.72;4.50;;;25.50;99.90;;;;;;6338187;22;20060;-77
2022/08/19 11:26:51;;;;;;;8.85;4.47;;;25.60;99.90;;;;;;6338785;22;20013;-76
2022/08/19 11:29:20;;;;;;;7.28;4.53;;;25.60;99.90;;;;;;6337646;22;20077;-76
2022/08/19 11:31:48;;;;;;;9.25;5.28;;;25.80;99.90;;;;;;6339126;22;20323;-76
2022/08/19 11:34:17;;;;;;;8.45;5.35;;;25.90;99.90;;;;;;6338007;22;20439;-78
2022/08/19 11:36:45;;;;;;;7.38;6.25;;;26.00;99.90;;;;;;6338497;22;20006;-76
2022/08/19 11:39:13;;;;;;;6.35;4.82;;;26.00;99.90;;;;;;6338402;22;20308;-76
2022/08/19 11:41:39;;;;;;;10.20;8.15;;;26.10;99.90;;;;;;6338885;22;20008;-76
2022/08/19 11:44:06;;;;;;;13.15;8.65;;;26.00;99.90;;;;;;6338346;22;20057;-77
2022/08/19 11:46:32;;;;;;;9.48;8.48;;;26.00;99.90;;;;;;6339308;22;20330;-75
2022/08/19 11:49:00;;;;;;;9.05;8.02;;;25.90;99.90;;;;;;6345314;22;19998;-78
2022/08/19 11:51:26;;;;;;;7.18;6.45;;;25.70;99.90;;;;;;6340303;22;20435;-76
2022/08/19 11:53:54;;;;;;;9.02;7.10;;;25.50;99.90;;;;;;6353997;22;19999;-77
2022/08/19 11:56:20;;;;;;;8.98;6.15;;;25.40;99.90;;;;;;6355086;22;20064;-77
2022/08/19 11:58:46;;;;;;;6.43;5.80;;;25.40;99.90;;;;;;6355002;22;20026;-77
2022/08/19 12:01:15;;;;;;;10.32;5.70;;;25.30;99.90;;;;;;6357750;22;19998;-78
2022/08/19 12:03:43;;;;;;;5.05;4.18;;;25.30;99.90;;;;;;6354596;22;20098;-77
2022/08/19 12:06:12;;;;;;;3.75;2.67;;;25.20;99.90;;;;;;6352177;22;19999;-77
2022/08/19 12:08:38;;;;;;;5.03;3.63;;;25.10;99.90;;;;;;6355179;22;20007;-77
2022/08/19 12:11:07;;;;;;;3.97;3.60;;;25.00;99.90;;;;;;6350442;22;20088;-77
2022/08/19 12:13:33;;;;;;;3.60;3.25;;;24.90;99.90;;;;;;6339171;22;20336;-77
2022/08/19 12:15:59;;;;;;;5.43;3.42;;;24.80;99.90;;;;;;6342168;22;20022;-77
2022/08/19 12:18:25;;;;;;;4.63;2.88;;;24.80;99.90;;;;;;6338130;22;20319;-77
2022/08/19 12:20:54;;;;;;;7.05;5.40;;;24.80;99.90;;;;;;6338704;22;19998;-77
2022/08/19 12:23:20;;;;;;;7.30;6.60;;;24.90;99.90;;;;;;6338294;22;20453;-77
2022/08/19 12:25:51;;;;;;;8.10;6.68;;;24.80;99.90;;;;;;6337335;22;20022;-77
2022/08/19 12:28:22;;;;;;;8.43;7.20;;;24.80;99.90;;;;;;6339154;22;19999;-77
2022/08/19 12:30:50;;;;;;;8.55;7.20;;;24.70;99.90;;;;;;6339174;22;19999;-77
2022/08/19 12:33:16;;;;;;;14.70;8.35;;;24.60;99.90;;;;;;6337210;22;20003;-77
2022/08/19 12:35:44;;;;;;;8.00;7.28;;;24.50;99.90;;;;;;6338847;22;20065;-77
2022/08/19 12:38:11;;;;;;;9.93;8.68;;;24.40;99.90;;;;;;6338054;22;20003;-77
2022/08/19 12:40:38;;;;;;;11.80;9.55;;;24.10;99.90;;;;;;6337351;22;20411;-79
2022/08/19 12:43:04;;;;;;;23.00;10.73;;;23.80;99.90;;;;;;6339167;22;20038;-80
2022/08/19 12:45:29;;;;;;;8.52;5.50;;;23.50;99.90;;;;;;6339309;22;20331;-79
2022/08/19 12:47:56;;;;;;;10.13;4.30;;;23.30;99.90;;;;;;6338230;22;20046;-80
2022/08/19 12:50:21;;;;;;;4.68;4.18;;;23.00;99.90;;;;;;6337782;22;19999;-80
2022/08/19 12:52:47;;;;;;;5.28;4.78;;;22.70;99.90;;;;;;6337087;22;20029;-80
2022/08/19 12:55:13;;;;;;;8.27;7.55;;;22.50;99.90;;;;;;6338146;22;20022;-80